Weather at Thalchi Airport

Public forecast

Using degrees Celsius for public forecast. Weather courtesy of forecast.io.

Closest aviation weather report (METAR) to Thalchi Airport

Closest report is Pantnagar Airport, 143.0 nm (264.9 km) W. Retrieved 2020/10/23 10:30 UTC (45 minutes ago):

VIPT 231030Z 36003KT 4000 HZ NSC 31/17 Q1005

Closest aviation forecast (TAF) to Thalchi Airport

Forecast is more than 12 hours old.

Closest forecast is Pantnagar Airport, 143.0 nm (264.9 km) W. Retrieved 2016/07/10 06:00 UTC (4 years ago):

TAF VIPT 100500Z 1006/1015 24005KT 4000 HZ FEW040 SCT100 TEMPO 1010/1015 2000 -TSRA SCT030 FEW035CB BKN090